createdAt,value
2023-01-01T00:00:49.336Z,97836.66
2023-01-01T00:03:17.213Z,97832.09
2023-01-01T00:05:45.026Z,97832.09
2023-01-01T00:08:12.789Z,97835.41
2023-01-01T00:10:40.545Z,97839.75
2023-01-01T00:13:08.381Z,97842.44
2023-01-01T00:15:36.565Z,97841.63
2023-01-01T00:18:04.473Z,97847.00
2023-01-01T00:20:35.414Z,97852.56
2023-01-01T00:23:03.757Z,97839.97
2023-01-01T00:25:32.617Z,97832.09
2023-01-01T00:28:00.943Z,97842.84
2023-01-01T00:30:29.062Z,97835.16
2023-01-01T00:32:56.940Z,97823.78
2023-01-01T00:35:25.694Z,97824.19
2023-01-01T00:37:54.646Z,97833.25
2023-01-01T00:40:22.971Z,97833.63
2023-01-01T00:42:50.779Z,97834.88
2023-01-01T00:45:21.747Z,97820.16
2023-01-01T00:47:54.224Z,97829.44
2023-01-01T00:50:23.143Z,97822.59
2023-01-01T00:52:50.974Z,97827.09
2023-01-01T00:55:18.785Z,97823.38
2023-01-01T00:57:46.554Z,97828.75
2023-01-01T01:00:15.422Z,97831.63
2023-01-01T01:02:43.243Z,97829.78
2023-01-01T01:05:11.207Z,97839.50
2023-01-01T01:07:39.936Z,97829.34
2023-01-01T01:10:09.638Z,97841.09
2023-01-01T01:12:37.682Z,97832.41
2023-01-01T01:15:07.210Z,97834.63
2023-01-01T01:17:35.468Z,97841.03
2023-01-01T01:20:04.657Z,97839.59
2023-01-01T01:22:34.622Z,97844.50
2023-01-01T01:25:02.538Z,97836.63
2023-01-01T01:27:30.549Z,97840.53
2023-01-01T01:29:58.459Z,97840.72
2023-01-01T01:32:26.942Z,97839.06
2023-01-01T01:34:54.872Z,97840.91
2023-01-01T01:37:22.628Z,97845.66
2023-01-01T01:39:53.817Z,97839.22
2023-01-01T01:42:22.372Z,97842.97
2023-01-01T01:45:01.425Z,97848.50
2023-01-01T01:47:46.492Z,97845.19
2023-01-01T01:50:38.890Z,97847.25
2023-01-01T01:53:27.393Z,97853.63
2023-01-01T01:56:00.810Z,97854.84
2023-01-01T01:58:31.601Z,97850.28
2023-01-01T02:01:00.653Z,97852.97
2023-01-01T02:03:32.596Z,97849.66
2023-01-01T02:06:01.608Z,97851.34
2023-01-01T02:08:30.208Z,97848.81
2023-01-01T02:10:58.008Z,97857.94
2023-01-01T02:13:25.761Z,97870.50
2023-01-01T02:16:22.453Z,97862.44
2023-01-01T02:19:20.900Z,97856.69
2023-01-01T02:22:36.353Z,97862.91
2023-01-01T02:25:14.106Z,97874.09
2023-01-01T02:27:48.562Z,97867.03
2023-01-01T02:30:16.894Z,97881.50
2023-01-01T02:33:02.131Z,97870.94
2023-01-01T02:35:58.624Z,97873.81
2023-01-01T02:38:45.002Z,97877.72
2023-01-01T02:41:27.403Z,97874.22
2023-01-01T02:48:52.620Z,97877.66
2023-01-01T02:51:23.081Z,97878.66
2023-01-01T02:54:18.845Z,97879.31
2023-01-01T02:57:05.044Z,97877.38
2023-01-01T03:00:04.648Z,97878.84
2023-01-01T03:03:08.590Z,97880.53
2023-01-01T03:06:16.836Z,97878.66
2023-01-01T03:09:17.996Z,97875.16
2023-01-01T03:12:00.214Z,97870.97
2023-01-01T03:14:40.532Z,97872.66
2023-01-01T03:17:36.275Z,97871.84
2023-01-01T03:20:13.944Z,97878.84
2023-01-01T03:25:23.786Z,97888.13
2023-01-01T03:27:59.354Z,97896.19
2023-01-01T03:30:29.923Z,97899.88
2023-01-01T03:33:08.064Z,97902.56
2023-01-01T03:36:30.188Z,97908.78
2023-01-01T03:39:21.247Z,97914.59
2023-01-01T03:42:17.928Z,97907.19
2023-01-01T03:45:01.803Z,97911.06
2023-01-01T03:47:30.588Z,97906.72
2023-01-01T03:49:59.740Z,97908.13
2023-01-01T03:53:08.096Z,97903.41
2023-01-01T03:55:45.668Z,97908.78
2023-01-01T03:58:35.398Z,97906.09
2023-01-01T04:01:27.185Z,97902.38
2023-01-01T04:03:55.957Z,97899.31
2023-01-01T04:06:23.897Z,97894.97
2023-01-01T04:08:57.151Z,97893.13
2023-01-01T04:11:49.311Z,97896.25
2023-01-01T04:14:35.293Z,97900.16
2023-01-01T04:17:05.033Z,97899.03
2023-01-01T04:19:33.106Z,97893.22
2023-01-01T04:22:02.310Z,97891.25
2023-01-01T04:24:30.541Z,97895.16
2023-01-01T04:26:58.401Z,97895.34
2023-01-01T04:29:26.501Z,97888.28
2023-01-01T04:31:54.380Z,97890.63
2023-01-01T04:34:22.093Z,97891.66
2023-01-01T04:36:49.855Z,97882.94
2023-01-01T04:39:17.761Z,97883.97
2023-01-01T04:41:47.513Z,97892.66
2023-01-01T04:44:15.256Z,97889.97
2023-01-01T04:46:43.067Z,97897.19
2023-01-01T04:49:10.825Z,97893.66
2023-01-01T04:51:38.645Z,97893.66
2023-01-01T04:54:06.522Z,97890.97
2023-01-01T04:56:34.625Z,97890.16
2023-01-01T04:59:02.358Z,97896.16
2023-01-01T05:01:31.307Z,97897.84
2023-01-01T05:04:00.300Z,97897.03
2023-01-01T05:06:29.184Z,97903.22
2023-01-01T05:08:57.693Z,97904.03
2023-01-01T05:11:28.872Z,97899.31
2023-01-01T05:14:00.151Z,97903.69
2023-01-01T05:16:31.373Z,97913.22
2023-01-01T05:18:59.614Z,97913.41
2023-01-01T05:21:33.609Z,97917.59
2023-01-01T05:24:05.117Z,97923.59
2023-01-01T05:26:36.437Z,97913.69
2023-01-01T05:29:08.932Z,97920.06
2023-01-01T05:31:41.392Z,97922.56
2023-01-01T05:36:39.090Z,97926.94
2023-01-01T05:39:12.711Z,97923.38
2023-01-01T05:41:41.788Z,97929.59
2023-01-01T05:44:10.476Z,97933.75
2023-01-01T05:46:38.454Z,97925.72
2023-01-01T05:49:06.192Z,97931.91
2023-01-01T05:54:00.721Z,97929.41
2023-01-01T05:56:29.591Z,97934.97
2023-01-01T05:58:57.502Z,97935.63
2023-01-01T06:01:31.279Z,97938.94
2023-01-01T06:03:59.902Z,97932.81
2023-01-01T06:06:33.216Z,97935.88
2023-01-01T06:09:04.327Z,97946.16
2023-01-01T06:11:33.070Z,97945.50
2023-01-01T06:14:01.503Z,97945.72
2023-01-01T06:16:31.319Z,97950.22
2023-01-01T06:19:00.037Z,97947.75
2023-01-01T06:21:29.650Z,97964.28
2023-01-01T06:23:59.703Z,97955.41
2023-01-01T06:26:33.402Z,97954.41
2023-01-01T06:29:04.357Z,97961.59
2023-01-01T06:31:37.050Z,97963.28
2023-01-01T06:34:08.538Z,97969.47
2023-01-01T06:36:36.382Z,97968.47
2023-01-01T06:39:04.533Z,97968.28
2023-01-01T06:41:33.071Z,97965.41
2023-01-01T06:44:02.200Z,97957.75
2023-01-01T06:46:36.162Z,97960.03
2023-01-01T06:49:09.898Z,97957.56
2023-01-01T06:51:43.627Z,97954.88
2023-01-01T06:54:11.398Z,97955.59
2023-01-01T06:56:40.106Z,97959.50
2023-01-01T06:59:07.864Z,97959.03
2023-01-01T07:01:39.893Z,97959.38
2023-01-01T07:04:16.647Z,97959.22
2023-01-01T07:06:44.477Z,97965.63
2023-01-01T07:09:12.370Z,97957.75
2023-01-01T07:11:40.723Z,97958.75
2023-01-01T07:14:08.432Z,97965.97
2023-01-01T07:16:36.301Z,97959.56
2023-01-01T07:19:05.212Z,97972.00
2023-01-01T07:21:38.822Z,97976.53
2023-01-01T07:24:09.979Z,97981.25
2023-01-01T07:26:37.722Z,97970.88
2023-01-01T07:29:07.887Z,97982.44
2023-01-01T07:31:44.279Z,97986.97
2023-01-01T07:34:19.213Z,97986.63
2023-01-01T07:36:47.471Z,97989.50
2023-01-01T07:39:15.205Z,97993.00
2023-01-01T07:41:43.495Z,98003.56
2023-01-01T07:44:14.838Z,98015.13
2023-01-01T07:46:42.671Z,98006.88
2023-01-01T07:49:10.447Z,98012.25
2023-01-01T07:51:38.240Z,98029.19
2023-01-01T07:54:07.348Z,98022.81
2023-01-01T07:56:36.147Z,98030.69
2023-01-01T07:59:05.122Z,98041.03
2023-01-01T08:01:37.429Z,98043.72
2023-01-01T08:04:06.034Z,98047.88
2023-01-01T08:06:33.853Z,98040.50
2023-01-01T08:09:01.605Z,98049.56
2023-01-01T08:11:29.706Z,98052.44
2023-01-01T08:13:57.447Z,98048.91
2023-01-01T08:16:25.214Z,98057.44
2023-01-01T08:18:52.957Z,98058.44
2023-01-01T08:21:20.677Z,98062.34
2023-01-01T08:23:48.385Z,98067.88
2023-01-01T08:26:17.896Z,98068.53
2023-01-01T08:28:45.658Z,98069.19
2023-01-01T08:31:13.481Z,98071.69
2023-01-01T08:33:41.178Z,98069.19
2023-01-01T08:36:13.273Z,98071.88
2023-01-01T08:38:41.256Z,98079.09
2023-01-01T08:41:09.932Z,98078.91
2023-01-01T08:43:37.670Z,98085.13
2023-01-01T08:46:05.534Z,98078.09
2023-01-01T08:48:33.306Z,98077.06
2023-01-01T08:51:02.168Z,98076.06
2023-01-01T08:53:32.001Z,98069.84
2023-01-01T08:56:03.985Z,98075.84
2023-01-01T08:58:33.201Z,98076.69
2023-01-01T09:01:01.075Z,98074.66
2023-01-01T09:03:28.947Z,98081.31
2023-01-01T09:05:57.241Z,98073.09
2023-01-01T09:08:25.668Z,98080.94
2023-01-01T09:10:57.731Z,98081.22
2023-01-01T09:13:25.728Z,98080.88
2023-01-01T09:15:53.662Z,98087.25
2023-01-01T09:18:21.706Z,98089.38
2023-01-01T09:20:50.113Z,98085.31
2023-01-01T09:23:17.812Z,98084.91
2023-01-01T09:25:45.576Z,98078.53
2023-01-01T09:28:14.425Z,98086.03
2023-01-01T09:30:42.213Z,98097.06
2023-01-01T09:33:09.896Z,98099.34
2023-01-01T09:35:38.841Z,98090.91
2023-01-01T09:38:06.655Z,98093.03
2023-01-01T09:41:21.699Z,98096.19
2023-01-01T09:44:15.822Z,98097.94
2023-01-01T09:46:43.947Z,98095.88
2023-01-01T09:49:27.188Z,98100.72
2023-01-01T09:52:01.152Z,98095.59
2023-01-01T09:54:34.165Z,98100.41
2023-01-01T09:57:06.743Z,98105.25
2023-01-01T09:59:34.493Z,98097.63
2023-01-01T10:02:36.443Z,98112.34
2023-01-01T10:05:15.852Z,98106.41
2023-01-01T10:07:58.488Z,98100.84
2023-01-01T10:10:38.641Z,98101.09
2023-01-01T10:13:40.820Z,98100.91
2023-01-01T10:16:47.234Z,98095.97
2023-01-01T10:20:32.069Z,98093.94
2023-01-01T10:23:29.794Z,98088.44
2023-01-01T10:26:00.741Z,98087.38
2023-01-01T10:29:02.660Z,98095.09
2023-01-01T10:31:45.976Z,98096.00
2023-01-01T10:34:24.358Z,98093.09
2023-01-01T10:36:58.849Z,98096.22
2023-01-01T10:39:28.008Z,98096.03
2023-01-01T10:41:58.276Z,98098.53
2023-01-01T10:44:34.769Z,98086.34
2023-01-01T10:47:25.600Z,98085.75
2023-01-01T10:50:00.450Z,98082.28
2023-01-01T10:52:45.303Z,98082.75
2023-01-01T10:55:27.187Z,98088.38
2023-01-01T10:57:54.949Z,98083.44
2023-01-01T11:00:28.902Z,98077.47
2023-01-01T11:03:19.348Z,98080.41
2023-01-01T11:06:16.112Z,98064.69
2023-01-01T11:08:53.838Z,98076.28
2023-01-01T11:11:46.299Z,98073.41
2023-01-01T11:14:42.852Z,98071.97
2023-01-01T11:17:10.987Z,98072.44
2023-01-01T11:19:45.691Z,98066.03
2023-01-01T11:22:50.395Z,98063.75
2023-01-01T11:25:31.805Z,98061.91
2023-01-01T11:28:21.906Z,98049.28
2023-01-01T11:31:07.658Z,98046.19
2023-01-01T11:33:59.188Z,98042.47
2023-01-01T11:36:35.454Z,98042.91
2023-01-01T11:39:26.587Z,98036.66
2023-01-01T11:41:58.217Z,98030.25
2023-01-01T11:44:46.044Z,98032.75
2023-01-01T11:47:26.905Z,98034.03
2023-01-01T11:50:09.072Z,98023.06
2023-01-01T11:52:43.369Z,98023.69
2023-01-01T11:55:24.934Z,98022.25
2023-01-01T11:58:04.428Z,98015.63
2023-01-01T12:00:36.716Z,98010.66
2023-01-01T12:03:35.554Z,98010.28
2023-01-01T12:06:29.660Z,98012.16
2023-01-01T12:09:11.992Z,98009.66
2023-01-01T12:11:57.472Z,98013.00
2023-01-01T12:15:25.712Z,98010.28
2023-01-01T12:18:18.998Z,98003.28
2023-01-01T12:21:29.323Z,97993.75
2023-01-01T12:23:57.131Z,97996.66
2023-01-01T12:26:53.154Z,97987.56
2023-01-01T12:29:53.314Z,97978.66
2023-01-01T12:33:15.142Z,97980.72
2023-01-01T12:36:27.010Z,97985.28
2023-01-01T12:39:34.777Z,97983.84
2023-01-01T12:42:18.430Z,97986.75
2023-01-01T12:45:12.367Z,97985.34
2023-01-01T12:48:13.667Z,97980.19
2023-01-01T12:50:51.440Z,97989.31
2023-01-01T12:53:37.012Z,97985.78
2023-01-01T12:56:22.557Z,97980.81
2023-01-01T12:58:58.893Z,97983.94
2023-01-01T13:01:33.921Z,97981.66
2023-01-01T13:04:20.181Z,97972.09
2023-01-01T13:06:57.454Z,97970.84
2023-01-01T13:09:29.312Z,97973.97
2023-01-01T13:12:14.541Z,97967.91
2023-01-01T13:14:45.725Z,97970.00
2023-01-01T13:17:30.198Z,97958.38
2023-01-01T13:20:24.090Z,97952.97
2023-01-01T13:22:51.946Z,97958.78
2023-01-01T13:25:23.758Z,97962.91
2023-01-01T13:27:57.378Z,97961.69
2023-01-01T13:30:41.635Z,97959.78
2023-01-01T13:33:31.254Z,97956.47
2023-01-01T13:36:08.494Z,97955.03
2023-01-01T13:38:59.503Z,97937.16
2023-01-01T13:41:30.245Z,97940.69
2023-01-01T13:44:00.872Z,97929.06
2023-01-01T13:46:44.711Z,97931.16
2023-01-01T13:49:53.489Z,97933.84
2023-01-01T13:52:58.098Z,97939.25
2023-01-01T13:55:51.104Z,97932.41
2023-01-01T13:58:56.233Z,97939.88
2023-01-01T14:01:29.795Z,97940.72
2023-01-01T14:03:58.765Z,97944.63
2023-01-01T14:06:41.876Z,97947.97
2023-01-01T14:09:14.837Z,97944.66
2023-01-01T14:11:42.994Z,97945.47
2023-01-01T14:14:28.622Z,97947.56
2023-01-01T14:17:00.440Z,97949.00
2023-01-01T14:19:29.338Z,97953.19
2023-01-01T14:21:57.863Z,97943.41
2023-01-01T14:24:26.828Z,97954.44
2023-01-01T14:26:55.571Z,97957.97
2023-01-01T14:29:29.607Z,97959.41
2023-01-01T14:32:11.908Z,97954.00
2023-01-01T14:34:39.600Z,97948.00
2023-01-01T14:37:23.935Z,97958.78
2023-01-01T14:40:28.113Z,97958.97
2023-01-01T14:43:07.896Z,97944.00
2023-01-01T14:45:38.913Z,97950.66
2023-01-01T14:48:07.182Z,97939.25
2023-01-01T14:50:36.000Z,97946.31
2023-01-01T14:53:13.233Z,97946.94
2023-01-01T14:55:45.032Z,97964.38
2023-01-01T14:58:27.750Z,97951.31
2023-01-01T15:01:15.874Z,97950.06
2023-01-01T15:03:56.388Z,97954.03
2023-01-01T15:06:25.235Z,97954.63
2023-01-01T15:08:53.864Z,97954.25
2023-01-01T15:11:28.358Z,97949.44
2023-01-01T15:14:01.299Z,97957.75
2023-01-01T15:16:34.739Z,97951.56
2023-01-01T15:19:18.278Z,97953.22
2023-01-01T15:21:46.879Z,97950.50
2023-01-01T15:24:29.293Z,97941.59
2023-01-01T15:27:03.683Z,97944.25
2023-01-01T15:29:50.581Z,97941.34
2023-01-01T15:32:33.003Z,97943.00
2023-01-01T15:35:32.602Z,97942.78
2023-01-01T15:38:10.360Z,97945.84
2023-01-01T15:40:38.411Z,97946.47
2023-01-01T15:43:18.182Z,97936.91
2023-01-01T15:46:00.632Z,97929.41
2023-01-01T15:48:39.549Z,97932.03
2023-01-01T15:51:17.711Z,97929.72
2023-01-01T15:53:54.669Z,97939.63
2023-01-01T15:56:30.129Z,97936.88
2023-01-01T15:59:14.831Z,97936.00
2023-01-01T16:01:43.829Z,97938.66
2023-01-01T16:04:27.656Z,97927.84
2023-01-01T16:06:58.784Z,97921.41
2023-01-01T16:09:26.653Z,97926.75
2023-01-01T16:11:57.548Z,97919.06
2023-01-01T16:14:25.679Z,97919.44
2023-01-01T16:17:00.997Z,97916.97
2023-01-01T16:19:31.937Z,97921.72
2023-01-01T16:21:59.795Z,97913.84
2023-01-01T16:24:28.723Z,97917.78
2023-01-01T16:26:56.500Z,97916.09
2023-01-01T16:29:24.211Z,97919.81
2023-01-01T16:31:52.441Z,97913.59
2023-01-01T16:34:20.214Z,97908.84
2023-01-01T16:36:49.664Z,97909.47
2023-01-01T16:39:17.400Z,97911.53
2023-01-01T16:41:45.464Z,97915.09
2023-01-01T16:44:16.339Z,97918.59
2023-01-01T16:46:44.394Z,97904.09
2023-01-01T16:49:12.231Z,97900.41
2023-01-01T16:51:43.738Z,97897.91
2023-01-01T16:54:12.063Z,97903.28
2023-01-01T16:56:39.836Z,97897.47
2023-01-01T16:59:07.567Z,97898.50
2023-01-01T17:01:35.548Z,97897.25
2023-01-01T17:04:03.593Z,97894.50
2023-01-01T17:06:31.478Z,97892.97
2023-01-01T17:09:00.701Z,97897.03
2023-01-01T17:11:28.583Z,97896.34
2023-01-01T17:13:59.633Z,97892.50
2023-01-01T17:16:38.331Z,97889.31
2023-01-01T17:19:16.560Z,97902.88
2023-01-01T17:21:47.968Z,97891.25
2023-01-01T17:24:18.319Z,97899.41
2023-01-01T17:26:50.725Z,97892.72
2023-01-01T17:29:19.382Z,97898.47
2023-01-01T17:31:47.381Z,97887.84
2023-01-01T17:34:15.419Z,97892.53
2023-01-01T17:36:45.031Z,97885.19
2023-01-01T17:39:15.405Z,97894.47
2023-01-01T17:41:44.589Z,97897.34
2023-01-01T17:44:12.403Z,97894.47
2023-01-01T17:46:40.763Z,97887.47
2023-01-01T17:49:09.975Z,97888.28
2023-01-01T17:51:39.465Z,97882.72
2023-01-01T17:54:10.331Z,97889.09
2023-01-01T17:56:38.153Z,97880.41
2023-01-01T17:59:06.072Z,97878.72
2023-01-01T18:01:35.779Z,97875.03
2023-01-01T18:04:07.372Z,97870.31
2023-01-01T18:06:42.109Z,97869.31
2023-01-01T18:09:13.719Z,97865.41
2023-01-01T18:11:42.175Z,97865.03
2023-01-01T18:14:12.168Z,97863.63
2023-01-01T18:16:44.077Z,97867.59
2023-01-01T18:19:12.163Z,97860.81
2023-01-01T18:21:40.062Z,97867.00
2023-01-01T18:24:13.992Z,97867.44
2023-01-01T18:26:42.681Z,97869.94
2023-01-01T18:29:10.514Z,97870.41
2023-01-01T18:31:38.370Z,97866.50
2023-01-01T18:34:06.997Z,97872.31
2023-01-01T18:36:35.470Z,97866.75
2023-01-01T18:39:26.246Z,97864.31
2023-01-01T18:42:22.555Z,97857.09
2023-01-01T18:44:51.823Z,97852.56
2023-01-01T18:47:20.697Z,97841.81
2023-01-01T18:49:51.991Z,97839.94
2023-01-01T18:52:29.081Z,97844.94
2023-01-01T18:55:23.021Z,97840.38
2023-01-01T18:58:06.439Z,97831.09
2023-01-01T19:00:36.469Z,97830.91
2023-01-01T19:03:13.976Z,97826.75
2023-01-01T19:05:42.004Z,97824.06
2023-01-01T19:08:09.605Z,97825.91
2023-01-01T19:10:47.370Z,97816.03
2023-01-01T19:13:28.033Z,97819.34
2023-01-01T19:16:08.616Z,97813.34
2023-01-01T19:18:39.749Z,97815.38
2023-01-01T19:21:21.949Z,97806.47
2023-01-01T19:23:58.738Z,97811.03
2023-01-01T19:26:28.797Z,97816.41
2023-01-01T19:29:01.449Z,97812.69
2023-01-01T19:31:29.232Z,97808.53
2023-01-01T19:33:57.102Z,97791.56
2023-01-01T19:36:25.169Z,97790.56
2023-01-01T19:38:52.840Z,97774.44
2023-01-01T19:41:20.591Z,97777.78
2023-01-01T19:43:48.349Z,97767.22
2023-01-01T19:46:16.181Z,97779.81
2023-01-01T19:48:44.000Z,97789.53
2023-01-01T19:51:11.748Z,97793.03
2023-01-01T19:53:39.457Z,97792.84
2023-01-01T19:56:07.787Z,97783.13
2023-01-01T19:58:35.574Z,97780.03
2023-01-01T20:01:03.531Z,97781.13
2023-01-01T20:06:18.999Z,97777.44
2023-01-01T20:08:46.718Z,97770.19
2023-01-01T20:11:15.534Z,97778.44
2023-01-01T20:13:43.715Z,97769.38
2023-01-01T20:16:11.808Z,97764.00
2023-01-01T20:18:39.779Z,97762.72
2023-01-01T20:21:27.162Z,97766.59
2023-01-01T20:23:56.023Z,97767.88
2023-01-01T20:26:26.037Z,97778.25
2023-01-01T20:29:12.741Z,97792.31
2023-01-01T20:31:40.868Z,97796.00
2023-01-01T20:34:08.696Z,97798.50
2023-01-01T20:36:54.629Z,97786.94
2023-01-01T20:39:22.757Z,97794.81
2023-01-01T20:41:50.931Z,97796.47
2023-01-01T20:44:18.905Z,97790.25
2023-01-01T20:46:48.233Z,97790.25
2023-01-01T20:49:17.703Z,97786.34
2023-01-01T20:51:54.079Z,97777.28
2023-01-01T20:54:22.739Z,97778.72
2023-01-01T20:56:50.979Z,97765.91
2023-01-01T20:59:34.781Z,97768.59
2023-01-01T21:02:10.092Z,97769.22
2023-01-01T21:04:39.671Z,97777.94
2023-01-01T21:07:10.518Z,97775.47
2023-01-01T21:09:39.747Z,97780.63
2023-01-01T21:12:08.865Z,97785.16
2023-01-01T21:14:36.932Z,97781.47
2023-01-01T21:17:24.460Z,97782.72
2023-01-01T21:19:56.469Z,97786.69
2023-01-01T21:22:24.379Z,97791.00
2023-01-01T21:24:55.357Z,97780.25
2023-01-01T21:27:34.070Z,97781.94
2023-01-01T21:30:01.988Z,97787.97
2023-01-01T21:32:49.571Z,97795.19
2023-01-01T21:35:35.429Z,97791.50
2023-01-01T21:38:18.986Z,97791.00
2023-01-01T21:40:59.596Z,97783.38
2023-01-01T21:43:48.010Z,97787.28
2023-01-01T21:46:33.783Z,97780.44
2023-01-01T21:49:33.656Z,97778.34
2023-01-01T21:52:02.982Z,97766.31
2023-01-01T21:54:37.905Z,97772.53
2023-01-01T21:57:25.152Z,97773.34
2023-01-01T21:59:54.276Z,97786.34
2023-01-01T22:02:35.373Z,97787.38
2023-01-01T22:05:31.470Z,97792.75
2023-01-01T22:08:17.733Z,97788.84
2023-01-01T22:10:45.463Z,97798.97
2023-01-01T22:13:17.455Z,97795.25
2023-01-01T22:15:46.528Z,97790.06
2023-01-01T22:18:27.214Z,97790.25
2023-01-01T22:20:56.528Z,97797.69
2023-01-01T22:23:43.334Z,97792.94
2023-01-01T22:26:27.886Z,97795.63
2023-01-01T22:29:04.086Z,97797.09
2023-01-01T22:31:36.290Z,97795.44
2023-01-01T22:34:06.607Z,97798.13
2023-01-01T22:36:36.784Z,97794.63
2023-01-01T22:39:29.130Z,97794.41
2023-01-01T22:41:57.340Z,97797.53
2023-01-01T22:44:27.253Z,97791.34
2023-01-01T22:46:58.924Z,97793.66
2023-01-01T22:49:39.246Z,97789.72
2023-01-01T22:52:08.299Z,97794.28
2023-01-01T22:54:36.101Z,97784.34
2023-01-01T22:57:04.030Z,97786.41
2023-01-01T22:59:31.782Z,97779.34
2023-01-01T23:02:00.481Z,97765.91
2023-01-01T23:04:28.215Z,97766.75
2023-01-01T23:06:56.142Z,97768.59
2023-01-01T23:09:24.964Z,97777.72
2023-01-01T23:11:56.027Z,97772.97
2023-01-01T23:14:43.141Z,97769.66
2023-01-01T23:17:10.991Z,97770.66
2023-01-01T23:19:38.756Z,97773.34
2023-01-01T23:22:07.061Z,97772.53
2023-01-01T23:24:35.573Z,97770.03
2023-01-01T23:27:04.606Z,97762.78
2023-01-01T23:29:34.167Z,97765.28
2023-01-01T23:32:03.315Z,97757.03
2023-01-01T23:34:31.315Z,97753.53
2023-01-01T23:36:59.217Z,97759.53
2023-01-01T23:39:26.943Z,97745.66
2023-01-01T23:41:54.760Z,97746.31
2023-01-01T23:44:22.481Z,97749.00
2023-01-01T23:46:52.437Z,97740.75
2023-01-01T23:49:21.829Z,97741.16
2023-01-01T23:51:50.042Z,97739.59
2023-01-01T23:54:17.813Z,97732.97
2023-01-01T23:56:45.596Z,97730.28
2023-01-01T23:59:13.494Z,97736.50
